Jacksontown, Ohio
Current Conditions -  °F | °C
As of 7:54 PM on Monday 24 Nov 2014 (Local Time) from KVTA Reporting Station
Overcast Overcast  
Wind Chill: 37°   Ceiling: 4100
Heat Index: 45°   Visibility: 10mi
Dew Point: 31°   Wind: 20mph
Humidity: 58%   Direction: 230°SW
Pressure: 29.78"   Gusts: 33mph
Location:  39.96°N, 82.41°W
Report Text: KVTA 250054Z AUTO 23017G29KT 10SM OVC041 07/M01 A2978 RMK AO2 PK WND 22029/0048 SLP085 T00721006
Loading
Personal Weather Stations






























Interactive Weather Map New forecast layout! Learn more

10-Day Weather Forecast

Advertisements
Track Severe Weather on mobile